Time;durP1;ratioP1;P1;durP2;ratioP2;P2;SDS_P1;SDS_P2;PMS_P1;PMS_P2;Temp;Humidity;BMP_temperature;BMP_pressure;BME280_temperature;BME280_humidity;BME280_pressure;Samples;Min_cycle;Max_cycle;Signal;HPM_P1;HPM_P2
2021/05/07 00:01:19;;;;;;;0.90;0.87;;;;;;;5.93;81.96;99911.22;4956273;28;20493;-67
2021/05/07 00:03:45;;;;;;;2.07;1.63;;;;;;;5.91;82.85;99909.84;4956184;28;20547;-67
2021/05/07 00:06:12;;;;;;;1.20;1.10;;;;;;;5.79;82.87;99911.03;4956101;28;20852;-66
2021/05/07 00:08:39;;;;;;;0.90;0.67;;;;;;;5.69;83.05;99908.47;4956008;28;20451;-67
2021/05/07 00:11:07;;;;;;;2.23;1.37;;;;;;;5.78;82.08;99908.66;4955564;28;20486;-67
2021/05/07 00:13:34;;;;;;;1.53;0.80;;;;;;;5.80;82.10;99893.06;4956053;28;20446;-69
2021/05/07 00:16:00;;;;;;;1.40;0.60;;;;;;;5.76;83.09;99886.66;4956136;28;20442;-67
2021/05/07 00:18:26;;;;;;;1.53;1.43;;;;;;;5.85;83.61;99892.19;4955917;28;20450;-67
2021/05/07 00:20:53;;;;;;;2.40;0.93;;;;;;;5.74;84.68;99881.56;4955766;28;20517;-67
2021/05/07 00:23:19;;;;;;;1.07;0.80;;;;;;;5.62;85.57;99885.72;4955838;28;20446;-67
2021/05/07 00:25:46;;;;;;;1.13;0.63;;;;;;;5.60;85.76;99891.38;4955763;28;20458;-67
2021/05/07 00:28:14;;;;;;;1.50;1.03;;;;;;;5.69;85.24;99884.28;4955641;28;20529;-67
2021/05/07 00:30:40;;;;;;;1.47;0.67;;;;;;;5.63;85.51;99888.13;4955373;28;20972;-67
2021/05/07 00:33:08;;;;;;;3.20;1.00;;;;;;;5.78;84.75;99879.09;4955720;28;20470;-67
2021/05/07 00:35:34;;;;;;;0.93;0.80;;;;;;;5.79;84.91;99881.50;4955634;28;20474;-67
2021/05/07 00:38:00;;;;;;;0.80;0.80;;;;;;;5.77;85.21;99882.88;4955612;28;20494;-67
2021/05/07 00:40:27;;;;;;;1.07;1.07;;;;;;;5.72;85.61;99866.81;4955595;28;20446;-67
2021/05/07 00:42:53;;;;;;;1.30;1.17;;;;;;;5.76;85.62;99878.59;4955499;28;20874;-67
2021/05/07 00:45:20;;;;;;;0.83;0.70;;;;;;;5.69;85.73;99870.88;4955566;28;20450;-67
2021/05/07 00:47:48;;;;;;;1.43;1.23;;;;;;;5.80;85.16;99874.25;4955488;28;20490;-68
2021/05/07 00:50:16;;;;;;;1.13;1.03;;;;;;;5.73;85.56;99876.47;4955255;28;20817;-67
2021/05/07 00:52:43;;;;;;;2.93;1.37;;;;;;;5.78;84.25;99877.22;4955329;28;20453;-67
2021/05/07 00:55:10;;;;;;;0.70;0.50;;;;;;;5.77;82.69;99872.94;4955326;28;20494;-68
2021/05/07 00:57:37;;;;;;;2.60;1.90;;;;;;;5.83;82.61;99873.66;4955390;28;20493;-68
2021/05/07 01:00:05;;;;;;;2.37;1.30;;;;;;;5.83;82.33;99879.03;4955377;28;20443;-67
2021/05/07 01:02:32;;;;;;;1.03;0.93;;;;;;;5.72;82.80;99883.75;4955325;28;20474;-67
2021/05/07 01:04:58;;;;;;;1.80;1.00;;;;;;;5.71;83.97;99881.31;4955314;28;20443;-67
2021/05/07 01:07:26;;;;;;;0.90;0.70;;;;;;;5.72;83.40;99880.25;4955261;28;21063;-67
2021/05/07 01:09:52;;;;;;;0.60;0.50;;;;;;;5.70;82.99;99875.16;4955054;28;20944;-66
2021/05/07 01:12:18;;;;;;;2.20;1.17;;;;;;;5.54;84.02;99879.09;4954860;28;20478;-68
2021/05/07 01:14:56;;;;;;;1.87;1.00;;;;;;;5.56;83.58;99876.91;4956137;28;20451;-67
2021/05/07 01:17:22;;;;;;;0.67;0.60;;;;;;;5.45;84.43;99872.75;4959333;28;20767;-67
2021/05/07 01:19:49;;;;;;;0.73;0.73;;;;;;;5.50;85.08;99875.38;4959208;28;20453;-67
2021/05/07 01:22:16;;;;;;;1.07;0.90;;;;;;;5.54;85.71;99865.69;4959098;28;20461;-67
2021/05/07 01:24:42;;;;;;;1.07;1.00;;;;;;;5.48;86.71;99869.47;4959124;28;20528;-67
2021/05/07 01:27:08;;;;;;;0.80;0.60;;;;;;;5.46;86.52;99875.16;4958997;28;20992;-67
2021/05/07 01:29:33;;;;;;;3.70;1.13;;;;;;;5.39;87.51;99865.81;4958982;28;20966;-67
2021/05/07 01:31:59;;;;;;;8.87;1.67;;;;;;;5.39;87.48;99871.19;4958861;28;20466;-67
2021/05/07 01:34:25;;;;;;;1.70;0.60;;;;;;;5.57;86.53;99865.88;4958890;28;20450;-65
2021/05/07 01:36:51;;;;;;;0.77;0.77;;;;;;;5.63;86.12;99874.72;4958853;28;20442;-66
2021/05/07 01:39:18;;;;;;;1.90;1.13;;;;;;;5.66;86.03;99871.44;4958777;28;20457;-66
2021/05/07 01:41:44;;;;;;;0.73;0.73;;;;;;;5.68;86.17;99869.28;4958378;28;20919;-66
2021/05/07 01:44:10;;;;;;;0.97;0.63;;;;;;;5.70;86.50;99868.97;4958824;28;20815;-66
2021/05/07 01:46:36;;;;;;;0.53;0.40;;;;;;;5.61;86.80;99868.00;4958569;28;20489;-66
2021/05/07 01:49:02;;;;;;;0.80;0.60;;;;;;;5.61;86.69;99871.50;4958617;28;20445;-66
2021/05/07 01:51:28;;;;;;;1.03;0.70;;;;;;;5.52;86.40;99875.88;4958553;28;20469;-66
2021/05/07 01:53:54;;;;;;;4.60;1.67;;;;;;;5.58;85.22;99869.41;4958504;28;20935;-66
2021/05/07 01:56:21;;;;;;;2.23;1.27;;;;;;;5.51;84.68;99874.28;4958524;28;21000;-66
2021/05/07 01:58:47;;;;;;;0.80;0.80;;;;;;;5.44;85.14;99873.81;4958310;28;20446;-66
2021/05/07 02:01:13;;;;;;;0.50;0.40;;;;;;;5.43;84.69;99869.53;4958349;28;20474;-66
2021/05/07 02:03:39;;;;;;;0.70;0.70;;;;;;;5.55;83.57;99872.63;4958378;28;20462;-67
2021/05/07 02:06:05;;;;;;;0.70;0.70;;;;;;;5.58;83.53;99872.06;4958315;28;20473;-66
2021/05/07 02:08:31;;;;;;;0.90;0.63;;;;;;;5.56;83.95;99874.22;4957891;28;20469;-66
2021/05/07 02:10:57;;;;;;;1.10;1.00;;;;;;;5.55;84.05;99864.59;4958024;28;20478;-66
2021/05/07 02:13:24;;;;;;;0.50;0.50;;;;;;;5.54;84.39;99871.03;4958257;28;20499;-66
2021/05/07 02:15:50;;;;;;;1.60;1.50;;;;;;;5.50;84.23;99870.00;4958151;28;20816;-67
2021/05/07 02:18:16;;;;;;;0.60;0.50;;;;;;;5.55;83.96;99880.69;4958073;28;20450;-67
2021/05/07 02:20:43;;;;;;;1.53;0.90;;;;;;;5.47;85.22;99878.63;4958041;28;20881;-67
2021/05/07 02:23:10;;;;;;;2.30;0.93;;;;;;;5.54;85.55;99873.72;4957762;28;20830;-67
2021/05/07 02:25:36;;;;;;;0.60;0.60;;;;;;;5.58;85.90;99869.41;4957170;28;20475;-67
2021/05/07 02:28:02;;;;;;;2.20;2.00;;;;;;;5.59;86.12;99868.31;4957040;28;20486;-67
2021/05/07 02:30:30;;;;;;;0.80;0.80;;;;;;;5.55;85.97;99859.22;4957855;28;20451;-67
2021/05/07 02:32:57;;;;;;;2.50;1.00;;;;;;;5.39;86.87;99865.81;4957723;28;20450;-67
2021/05/07 02:35:24;;;;;;;0.70;0.70;;;;;;;5.37;87.41;99865.31;4957939;28;20442;-67
2021/05/07 02:37:50;;;;;;;1.90;0.70;;;;;;;5.25;87.82;99858.44;4957914;28;20450;-67
2021/05/07 02:40:16;;;;;;;2.00;1.27;;;;;;;5.16;88.33;99859.34;4957822;28;20446;-67
2021/05/07 02:42:42;;;;;;;1.90;0.90;;;;;;;5.05;89.42;99854.06;4957738;28;20446;-67
2021/05/07 02:45:10;;;;;;;2.67;1.47;;;;;;;5.16;88.71;99857.44;4957663;28;20563;-67
2021/05/07 02:47:38;;;;;;;1.70;1.57;;;;;;;5.29;88.26;99854.09;4957501;28;20552;-67
2021/05/07 02:50:06;;;;;;;0.90;0.87;;;;;;;5.39;88.03;99858.56;4957695;28;20461;-66
2021/05/07 02:52:32;;;;;;;0.93;0.70;;;;;;;5.36;87.03;99856.47;4957610;28;20478;-67
2021/05/07 02:54:58;;;;;;;0.80;0.80;;;;;;;5.35;86.06;99852.16;4957540;28;20509;-68
2021/05/07 02:57:24;;;;;;;0.63;0.60;;;;;;;5.36;85.49;99853.78;4957410;28;20447;-67
2021/05/07 02:59:50;;;;;;;1.30;1.27;;;;;;;5.36;85.30;99852.94;4957411;28;20442;-67
2021/05/07 03:02:16;;;;;;;5.33;2.00;;;;;;;5.20;86.85;99850.44;4957401;28;20463;-67
2021/05/07 03:04:42;;;;;;;1.33;0.90;;;;;;;5.22;86.71;99859.00;4957228;28;20453;-67
2021/05/07 03:07:09;;;;;;;2.10;1.00;;;;;;;5.16;86.58;99852.06;4957066;28;20490;-68
2021/05/07 03:09:35;;;;;;;1.77;1.43;;;;;;;5.25;85.89;99855.75;4957225;28;20442;-64
2021/05/07 03:12:00;;;;;;;0.80;0.53;;;;;;;5.29;85.34;99859.47;4980455;23;20498;-70
2021/05/07 03:14:26;;;;;;;0.80;0.60;;;;;;;5.32;84.89;99855.44;4956648;28;20858;-71
2021/05/07 03:16:53;;;;;;;1.20;0.73;;;;;;;5.40;84.76;99870.94;4956956;28;20506;-70
2021/05/07 03:19:19;;;;;;;2.97;1.27;;;;;;;5.36;85.14;99864.53;4956822;28;20469;-70
2021/05/07 03:21:46;;;;;;;1.60;1.50;;;;;;;5.26;86.80;99864.59;4956780;28;20467;-70
2021/05/07 03:24:13;;;;;;;1.67;0.90;;;;;;;5.40;86.80;99870.94;4956840;28;20861;-70
2021/05/07 03:26:39;;;;;;;1.37;1.13;;;;;;;5.43;87.97;99870.34;4956687;28;20487;-70
2021/05/07 03:29:05;;;;;;;1.00;0.67;;;;;;;5.54;87.78;99877.22;4956477;28;20964;-70
2021/05/07 03:31:32;;;;;;;0.70;0.60;;;;;;;5.62;87.65;99877.66;4956677;28;20553;-70
2021/05/07 03:33:59;;;;;;;1.27;0.60;;;;;;;5.58;88.56;99890.88;4956623;28;20805;-70
2021/05/07 03:36:25;;;;;;;3.43;1.10;;;;;;;5.66;88.21;99882.16;4956602;28;20446;-71
2021/05/07 03:38:51;;;;;;;0.87;0.87;;;;;;;5.65;88.85;99879.78;4956145;28;20443;-70
2021/05/07 03:41:17;;;;;;;0.70;0.70;;;;;;;5.81;87.93;99887.41;4956397;28;20466;-70
2021/05/07 03:43:43;;;;;;;2.67;1.47;;;;;;;5.89;87.81;99887.81;4956113;28;20502;-70
2021/05/07 03:46:09;;;;;;;1.70;1.60;;;;;;;5.91;88.00;99889.16;4956434;28;20451;-70
2021/05/07 03:48:35;;;;;;;3.40;1.10;;;;;;;5.97;87.86;99895.28;4956379;28;20491;-70
2021/05/07 03:51:01;;;;;;;2.07;1.30;;;;;;;6.00;88.30;99895.53;4956255;28;20466;-70
2021/05/07 03:53:27;;;;;;;1.07;0.80;;;;;;;6.07;87.84;99903.25;4956278;28;20553;-70
2021/05/07 03:55:56;;;;;;;1.23;0.80;;;;;;;6.17;87.36;99910.38;4956187;28;20498;-70
2021/05/07 03:58:22;;;;;;;1.40;1.30;;;;;;;6.22;87.13;99916.50;4956169;28;20819;-71
2021/05/07 04:00:48;;;;;;;2.90;1.07;;;;;;;6.20;86.32;99921.38;4956007;28;20454;-70
2021/05/07 04:03:14;;;;;;;2.50;1.20;;;;;;;6.19;86.19;99914.38;4956119;28;20454;-70
2021/05/07 04:05:41;;;;;;;2.30;0.70;;;;;;;6.20;86.03;99917.88;4956020;28;20450;-70
2021/05/07 04:08:11;;;;;;;3.90;1.17;;;;;;;6.23;85.71;99915.41;4961837;28;20525;-70
2021/05/07 04:10:40;;;;;;;2.20;1.27;;;;;;;6.31;84.91;99913.97;4956005;28;20440;-70
2021/05/07 04:15:52;;;;;;;1.00;0.87;;;;;;;6.39;84.61;99936.72;4955722;29;20550;-70
2021/05/07 04:18:17;;;;;;;0.60;0.60;;;;;;;6.35;84.69;99931.13;4955858;28;20439;-70
2021/05/07 04:20:43;;;;;;;1.17;0.77;;;;;;;6.29;85.11;99938.47;4955746;28;20453;-70
2021/05/07 04:23:09;;;;;;;1.90;1.80;;;;;;;6.25;84.60;99944.72;4955761;28;20451;-70
2021/05/07 04:25:35;;;;;;;1.00;0.87;;;;;;;6.21;83.75;99943.69;4955683;28;20796;-71
2021/05/07 04:28:01;;;;;;;2.03;1.30;;;;;;;6.22;83.77;99942.59;4955342;28;21031;-71
2021/05/07 04:30:28;;;;;;;0.73;0.67;;;;;;;6.26;83.12;99946.31;4955662;28;20481;-70
2021/05/07 04:32:54;;;;;;;1.27;1.17;;;;;;;6.33;82.11;99957.53;4955556;28;20466;-70
2021/05/07 04:35:20;;;;;;;5.30;1.77;;;;;;;6.39;81.37;99958.25;4955231;28;20979;-69
2021/05/07 04:37:46;;;;;;;1.53;0.67;;;;;;;6.39;80.56;99959.06;4955263;28;20442;-68
2021/05/07 04:40:13;;;;;;;1.43;1.00;;;;;;;6.47;80.21;99961.09;4955563;28;20450;-69
2021/05/07 04:42:39;;;;;;;1.17;0.50;;;;;;;6.48;79.37;99968.06;4955407;28;20513;-68
2021/05/07 04:45:07;;;;;;;1.10;0.73;;;;;;;6.54;78.87;99976.88;4955470;28;20447;-69
2021/05/07 04:47:34;;;;;;;0.90;0.67;;;;;;;6.55;78.09;99981.16;4955401;28;20490;-68
2021/05/07 04:50:00;;;;;;;2.63;1.27;;;;;;;6.54;77.81;99971.50;4954663;28;20442;-68
2021/05/07 04:52:26;;;;;;;1.43;1.07;;;;;;;6.59;78.17;99982.19;4955293;28;20565;-68
2021/05/07 04:54:52;;;;;;;0.93;0.70;;;;;;;6.63;77.42;99987.78;4955294;28;20513;-68
2021/05/07 04:57:18;;;;;;;0.70;0.53;;;;;;;6.58;76.66;99980.59;4955296;28;20467;-68
2021/05/07 04:59:44;;;;;;;0.50;0.40;;;;;;;6.50;76.71;99987.41;4955277;28;20446;-68
2021/05/07 05:02:10;;;;;;;0.97;0.77;;;;;;;6.56;76.71;99990.84;4955122;28;20469;-68
2021/05/07 05:04:37;;;;;;;0.50;0.50;;;;;;;6.32;77.30;99988.97;4955166;28;20457;-69
2021/05/07 05:07:04;;;;;;;0.50;0.50;;;;;;;6.21;78.43;99987.50;4955072;28;20483;-69
2021/05/07 05:09:29;;;;;;;0.43;0.40;;;;;;;6.34;78.33;99995.97;4955176;28;20486;-67
2021/05/07 05:11:55;;;;;;;2.50;1.23;;;;;;;6.29;79.11;99994.94;4954802;28;20541;-68
2021/05/07 05:14:21;;;;;;;0.70;0.70;;;;;;;6.39;78.81;99998.59;4955102;28;20887;-68
2021/05/07 05:16:50;;;;;;;0.60;0.53;;;;;;;6.49;79.09;100003.84;4955111;28;20442;-68
2021/05/07 05:19:16;;;;;;;2.90;1.43;;;;;;;6.66;79.15;100004.16;4954797;28;21023;-68
2021/05/07 05:21:43;;;;;;;3.57;1.40;;;;;;;6.78;78.73;100015.31;4954992;28;20469;-68
2021/05/07 05:24:09;;;;;;;1.03;0.70;;;;;;;6.91;78.48;100015.69;4954996;29;20447;-68
2021/05/07 05:26:35;;;;;;;0.63;0.60;;;;;;;6.94;77.89;100020.47;4954839;28;20447;-68
2021/05/07 05:29:02;;;;;;;1.93;0.70;;;;;;;6.97;78.27;100025.28;4954981;28;20958;-68
2021/05/07 05:31:28;;;;;;;1.83;1.00;;;;;;;6.94;78.52;100028.56;4954865;28;20474;-68
2021/05/07 05:33:54;;;;;;;0.60;0.40;;;;;;;7.01;79.07;100023.63;4954947;28;20447;-68
2021/05/07 05:36:21;;;;;;;0.50;0.40;;;;;;;7.08;78.86;100029.44;4954961;28;20450;-68
2021/05/07 05:38:47;;;;;;;0.60;0.50;;;;;;;7.15;78.18;100037.97;4954594;28;20967;-68
2021/05/07 05:41:13;;;;;;;0.80;0.40;;;;;;;7.23;77.92;100026.53;4954861;28;20545;-68
2021/05/07 05:43:40;;;;;;;1.17;0.67;;;;;;;7.26;78.20;100027.81;4954583;28;20948;-68
2021/05/07 05:46:06;;;;;;;1.03;0.50;;;;;;;7.35;78.51;100031.47;4954562;28;20462;-69
2021/05/07 05:48:32;;;;;;;0.70;0.53;;;;;;;7.42;78.00;100042.66;4954750;28;20498;-69
2021/05/07 05:50:58;;;;;;;1.00;0.90;;;;;;;7.47;78.33;100034.50;4954723;28;20451;-69
2021/05/07 05:53:24;;;;;;;0.60;0.57;;;;;;;7.50;78.03;100033.91;4954702;28;20462;-69
2021/05/07 05:55:50;;;;;;;0.50;0.40;;;;;;;7.44;78.26;100037.81;4960440;28;20506;-69
2021/05/07 05:58:16;;;;;;;1.63;0.87;;;;;;;7.49;78.30;100045.00;4954685;28;20789;-68
2021/05/07 06:00:42;;;;;;;0.50;0.40;;;;;;;7.53;79.07;100054.09;4955386;28;20494;-71
2021/05/07 06:03:08;;;;;;;0.50;0.50;;;;;;;7.54;78.91;100063.78;4958343;28;20442;-72
2021/05/07 06:05:34;;;;;;;1.43;1.07;;;;;;;7.30;79.02;100072.75;4958200;28;20446;-68
2021/05/07 06:08:00;;;;;;;0.60;0.53;;;;;;;7.24;79.81;100067.72;4958159;28;20537;-72
2021/05/07 06:10:26;;;;;;;0.97;0.60;;;;;;;7.19;80.11;100071.28;4958079;28;20520;-72
2021/05/07 06:12:53;;;;;;;0.83;0.70;;;;;;;7.17;80.56;100072.66;4957679;28;20485;-71
2021/05/07 06:15:21;;;;;;;0.90;0.80;;;;;;;6.99;81.43;100071.56;4957769;28;20434;-72
2021/05/07 06:17:47;;;;;;;0.73;0.67;;;;;;;6.98;82.07;100075.34;4957977;28;20442;-71
2021/05/07 06:20:15;;;;;;;0.60;0.57;;;;;;;6.96;83.08;100058.69;4958006;28;20439;-70
2021/05/07 06:22:43;;;;;;;0.90;0.63;;;;;;;7.04;84.06;100066.13;4957743;28;20466;-70
2021/05/07 06:25:11;;;;;;;0.97;0.80;;;;;;;7.08;84.05;100064.44;4957725;28;20486;-70
2021/05/07 06:27:37;;;;;;;2.83;1.47;;;;;;;6.90;83.76;100063.31;4957212;28;21253;-71
2021/05/07 06:30:06;;;;;;;0.70;0.60;;;;;;;6.82;84.96;100067.50;4957631;28;20567;-71
2021/05/07 06:32:32;;;;;;;0.57;0.57;;;;;;;6.75;86.15;100072.41;4957745;28;20466;-71
2021/05/07 06:34:58;;;;;;;0.53;0.43;;;;;;;6.70;88.77;100067.09;4957616;28;20450;-71
2021/05/07 06:37:24;;;;;;;0.70;0.70;;;;;;;6.50;90.71;100065.44;4957680;28;20450;-71
2021/05/07 06:39:51;;;;;;;0.50;0.40;;;;;;;6.41;91.25;100072.53;4957621;28;20443;-71
2021/05/07 06:42:17;;;;;;;1.07;0.60;;;;;;;6.27;92.92;100068.91;4957493;28;20470;-71
2021/05/07 06:44:43;;;;;;;1.03;0.87;;;;;;;6.24;93.93;100072.16;4957400;28;20486;-70
2021/05/07 06:47:10;;;;;;;0.40;0.23;;;;;;;6.25;94.10;100069.22;4957300;28;21008;-70
2021/05/07 06:49:36;;;;;;;1.10;0.77;;;;;;;6.14;94.37;100064.22;4957215;28;20447;-70
2021/05/07 06:52:03;;;;;;;1.47;0.50;;;;;;;6.10;94.68;100069.34;4957215;28;21039;-71
2021/05/07 06:54:29;;;;;;;0.50;0.40;;;;;;;6.14;94.88;100064.22;4957157;28;20443;-71
2021/05/07 06:56:57;;;;;;;0.50;0.47;;;;;;;6.24;94.78;100078.38;4956773;28;20800;-70
2021/05/07 06:59:23;;;;;;;0.93;0.73;;;;;;;6.24;95.11;100078.38;4957093;28;20455;-70
2021/05/07 07:01:49;;;;;;;0.70;0.40;;;;;;;6.21;95.82;100088.88;4957109;28;20471;-68
2021/05/07 07:04:16;;;;;;;0.40;0.30;;;;;;;6.25;95.71;100096.09;4956660;28;20455;-69
2021/05/07 07:06:43;;;;;;;1.17;0.67;;;;;;;6.25;95.05;100100.69;4956951;28;20470;-69
2021/05/07 07:09:09;;;;;;;1.27;0.57;;;;;;;6.07;93.79;100103.00;4956977;28;20553;-70
2021/05/07 07:11:35;;;;;;;0.50;0.40;;;;;;;6.09;94.45;100107.28;4956593;28;20914;-69
2021/05/07 07:14:01;;;;;;;0.60;0.60;;;;;;;6.03;93.99;100107.34;4955783;28;20993;-70
2021/05/07 07:16:28;;;;;;;0.40;0.30;;;;;;;6.09;94.21;100116.16;4956731;28;20438;-70
2021/05/07 07:18:54;;;;;;;0.50;0.30;;;;;;;5.99;94.24;100110.88;4956652;28;20446;-69
2021/05/07 07:21:21;;;;;;;0.47;0.40;;;;;;;5.82;95.63;100106.66;4956425;28;20988;-69
2021/05/07 07:23:47;;;;;;;1.00;0.43;;;;;;;5.78;95.46;100112.88;4956720;28;20457;-69
2021/05/07 07:26:13;;;;;;;0.40;0.30;;;;;;;5.76;95.56;100121.22;4956446;28;20482;-69
2021/05/07 07:28:39;;;;;;;0.40;0.30;;;;;;;5.60;96.17;100117.03;4956556;28;20489;-69
2021/05/07 07:31:06;;;;;;;0.50;0.30;;;;;;;5.55;97.05;100117.06;4956599;28;20470;-70
2021/05/07 07:33:32;;;;;;;0.80;0.50;;;;;;;5.47;97.64;100123.03;4956637;28;20443;-69
2021/05/07 07:35:59;;;;;;;0.40;0.33;;;;;;;5.48;98.67;100120.06;4956276;28;20948;-69
2021/05/07 07:38:26;;;;;;;0.40;0.30;;;;;;;5.35;98.67;100133.31;4956551;28;20454;-69
2021/05/07 07:40:52;;;;;;;0.83;0.40;;;;;;;5.28;99.50;100150.53;4959194;28;20490;-69
2021/05/07 07:43:21;;;;;;;0.50;0.30;;;;;;;5.32;99.67;100145.41;4960604;28;20529;-69
2021/05/07 07:45:47;;;;;;;0.40;0.30;;;;;;;5.28;100.00;100141.69;4956313;28;20944;-69
2021/05/07 07:48:14;;;;;;;0.47;0.43;;;;;;;5.15;100.00;100167.25;4956077;28;20525;-70
2021/05/07 07:50:40;;;;;;;0.50;0.40;;;;;;;5.17;100.00;100178.50;4955907;28;20457;-70
2021/05/07 07:53:06;;;;;;;0.57;0.57;;;;;;;5.12;100.00;100181.22;4956141;28;20834;-70
2021/05/07 07:55:33;;;;;;;1.80;0.40;;;;;;;5.10;100.00;100187.94;4956096;28;20450;-70
2021/05/07 07:57:59;;;;;;;2.53;0.50;;;;;;;5.00;100.00;100189.59;4955890;28;20793;-69
2021/05/07 08:00:25;;;;;;;0.40;0.30;;;;;;;4.91;100.00;100191.19;4956184;28;20449;-69
2021/05/07 08:02:51;;;;;;;0.90;0.50;;;;;;;4.86;100.00;100196.59;4955937;28;20557;-69
2021/05/07 08:05:18;;;;;;;0.70;0.70;;;;;;;4.65;100.00;100195.84;4955977;28;20442;-69
2021/05/07 08:07:45;;;;;;;5.23;1.10;;;;;;;4.48;100.00;100198.81;4955892;28;20513;-69
2021/05/07 08:10:12;;;;;;;0.53;0.40;;;;;;;4.50;100.00;100209.25;4955925;28;20461;-69
2021/05/07 08:12:39;;;;;;;0.40;0.40;;;;;;;4.42;100.00;100210.59;4955499;28;20476;-69
2021/05/07 08:15:06;;;;;;;0.60;0.60;;;;;;;4.35;100.00;100204.72;4955543;28;20446;-70
2021/05/07 08:17:33;;;;;;;0.60;0.40;;;;;;;4.42;100.00;100215.16;4955403;28;20455;-69
2021/05/07 08:19:59;;;;;;;0.93;0.70;;;;;;;4.37;100.00;100223.22;4955448;28;20952;-69
2021/05/07 08:22:25;;;;;;;0.60;0.50;;;;;;;4.44;100.00;100229.13;4955726;28;20463;-70
2021/05/07 08:24:51;;;;;;;0.87;0.70;;;;;;;4.33;100.00;100239.03;4955405;28;20827;-70
2021/05/07 08:27:20;;;;;;;0.53;0.50;;;;;;;4.32;100.00;100237.44;4955608;28;20494;-70
2021/05/07 08:29:47;;;;;;;0.40;0.30;;;;;;;4.27;100.00;100246.28;4955447;28;20815;-69
2021/05/07 08:32:13;;;;;;;0.73;0.30;;;;;;;4.37;100.00;100248.16;4955600;28;20459;-69
2021/05/07 08:34:41;;;;;;;0.50;0.50;;;;;;;4.19;100.00;100254.03;4955395;28;20473;-69
2021/05/07 08:37:08;;;;;;;0.50;0.37;;;;;;;4.08;100.00;100263.94;4955661;28;20458;-69
2021/05/07 08:39:33;;;;;;;0.60;0.40;;;;;;;4.02;100.00;100270.34;4955658;28;20455;-69
2021/05/07 08:41:59;;;;;;;0.70;0.60;;;;;;;3.72;100.00;100271.91;4955451;28;21026;-69
2021/05/07 08:44:25;;;;;;;0.40;0.40;;;;;;;3.79;100.00;100277.00;4955488;28;20948;-69
2021/05/07 08:46:55;;;;;;;0.40;0.30;;;;;;;3.84;100.00;100284.25;4955410;28;20482;-69
2021/05/07 08:49:24;;;;;;;1.47;0.50;;;;;;;3.79;100.00;100288.50;4955107;28;21003;-69
2021/05/07 08:51:50;;;;;;;0.40;0.40;;;;;;;3.88;100.00;100304.09;4955364;28;20474;-69
2021/05/07 08:54:16;;;;;;;0.40;0.33;;;;;;;3.93;100.00;100307.56;4955144;28;20953;-69
2021/05/07 08:56:42;;;;;;;1.97;0.80;;;;;;;3.90;100.00;100310.81;4955348;28;20454;-68
2021/05/07 08:59:08;;;;;;;0.40;0.30;;;;;;;4.03;100.00;100320.22;4955189;28;20447;-69
2021/05/07 09:01:42;;;;;;;0.57;0.40;;;;;;;4.17;100.00;100321.31;4954648;28;20529;-69
2021/05/07 09:04:14;;;;;;;1.33;1.00;;;;;;;4.32;100.00;100331.25;4955259;28;20450;-69
2021/05/07 09:06:44;;;;;;;0.40;0.30;;;;;;;4.36;100.00;100334.22;4955386;28;20449;-69
2021/05/07 09:09:22;;;;;;;1.27;0.50;;;;;;;4.39;100.00;100329.13;4955036;28;20863;-69
2021/05/07 09:11:49;;;;;;;0.40;0.30;;;;;;;4.34;100.00;100345.22;4954980;28;20563;-69
2021/05/07 09:14:15;;;;;;;0.50;0.30;;;;;;;4.33;100.00;100350.81;4955124;28;20451;-70
2021/05/07 09:16:53;;;;;;;0.40;0.30;;;;;;;4.28;100.00;100349.75;4954993;28;20438;-69
2021/05/07 09:19:20;;;;;;;0.60;0.47;;;;;;;4.40;100.00;100362.13;4955232;28;20446;-70
2021/05/07 09:21:47;;;;;;;0.40;0.40;;;;;;;4.30;100.00;100358.34;4954738;28;20872;-69
2021/05/07 09:24:13;;;;;;;0.40;0.30;;;;;;;4.32;100.00;100360.75;4955069;28;20442;-70
2021/05/07 09:26:46;;;;;;;0.40;0.30;;;;;;;4.37;100.00;100359.97;4957914;28;20502;-70
2021/05/07 09:29:23;;;;;;;0.40;0.33;;;;;;;4.27;100.00;100369.59;4956312;29;20479;-70
2021/05/07 09:31:51;;;;;;;0.50;0.37;;;;;;;4.24;100.00;100370.09;4954596;28;20466;-70
2021/05/07 09:34:18;;;;;;;0.40;0.30;;;;;;;4.33;100.00;100377.63;4954716;28;20478;-70
2021/05/07 09:36:45;;;;;;;0.50;0.40;;;;;;;4.47;100.00;100384.09;4957142;28;20453;-70
2021/05/07 09:39:16;;;;;;;0.80;0.40;;;;;;;4.58;100.00;100383.06;4958576;28;20438;-70
2021/05/07 09:41:43;;;;;;;0.40;0.40;;;;;;;4.69;100.00;100387.38;4958462;28;20471;-70
2021/05/07 09:44:18;;;;;;;0.40;0.30;;;;;;;4.75;100.00;100398.91;4958440;28;20442;-70
2021/05/07 09:46:44;;;;;;;0.40;0.30;;;;;;;4.76;100.00;100406.69;4958412;28;20461;-69
2021/05/07 09:49:21;;;;;;;0.60;0.40;;;;;;;4.68;100.00;100412.56;4958697;28;20497;-70
2021/05/07 09:51:48;;;;;;;0.40;0.40;;;;;;;4.71;100.00;100414.72;4958604;28;20485;-70
2021/05/07 09:54:14;;;;;;;0.40;0.30;;;;;;;4.76;100.00;100419.31;4958463;28;20446;-70
2021/05/07 09:56:41;;;;;;;1.27;0.50;;;;;;;4.85;100.00;100422.25;4958195;28;21000;-69
2021/05/07 09:59:07;;;;;;;0.50;0.30;;;;;;;4.96;100.00;100423.91;4958204;28;20438;-70
2021/05/07 10:01:33;;;;;;;0.50;0.30;;;;;;;5.12;100.00;100428.19;4957708;28;20980;-70
2021/05/07 10:04:00;;;;;;;0.80;0.50;;;;;;;5.11;100.00;100431.94;4957853;28;20450;-70
2021/05/07 10:06:27;;;;;;;0.70;0.30;;;;;;;5.20;100.00;100424.97;4958105;28;20563;-70
2021/05/07 10:08:55;;;;;;;3.23;1.70;;;;;;;5.24;100.00;100428.72;4958005;28;20492;-70
2021/05/07 10:11:23;;;;;;;3.30;0.70;;;;;;;5.30;100.00;100433.00;4957953;28;20489;-70
2021/05/07 10:13:52;;;;;;;0.50;0.50;;;;;;;5.46;100.00;100422.25;4958033;28;20457;-70
2021/05/07 10:16:27;;;;;;;0.50;0.33;;;;;;;5.69;100.00;100405.56;4958326;28;20450;-70
2021/05/07 10:19:00;;;;;;;0.40;0.30;;;;;;;5.97;100.00;100414.91;4958147;28;20422;-70
2021/05/07 10:21:36;;;;;;;0.87;0.60;;;;;;;6.21;100.00;100423.16;4958024;28;20474;-70
2021/05/07 10:24:04;;;;;;;1.43;0.40;;;;;;;6.57;100.00;100426.47;4957701;28;20433;-70
2021/05/07 10:26:34;;;;;;;0.73;0.67;;;;;;;6.73;100.00;100429.88;4957991;28;20960;-70
2021/05/07 10:29:00;;;;;;;0.50;0.40;;;;;;;6.81;100.00;100437.34;4958167;28;20490;-71
2021/05/07 10:31:27;;;;;;;0.63;0.63;;;;;;;7.00;100.00;100455.53;4958046;28;20474;-70
2021/05/07 10:33:57;;;;;;;0.77;0.77;;;;;;;6.77;99.06;100452.47;4958112;28;20451;-70
2021/05/07 10:36:34;;;;;;;0.40;0.30;;;;;;;6.90;99.37;100464.47;4957976;28;20454;-70
2021/05/07 10:39:00;;;;;;;1.47;0.80;;;;;;;6.90;99.14;100460.97;4957926;28;20462;-70
2021/05/07 10:41:33;;;;;;;0.80;0.70;;;;;;;6.90;98.40;100461.78;4957690;28;20487;-70
2021/05/07 10:43:59;;;;;;;0.70;0.50;;;;;;;6.94;98.78;100462.03;4957584;28;20420;-70
2021/05/07 10:46:28;;;;;;;2.70;1.17;;;;;;;7.15;99.05;100462.69;4957215;28;20951;-71
2021/05/07 10:48:56;;;;;;;0.70;0.40;;;;;;;7.57;98.96;100464.78;4956385;28;21017;-71
2021/05/07 10:51:23;;;;;;;0.40;0.30;;;;;;;8.02;99.26;100476.19;4957474;28;20478;-71
2021/05/07 10:53:50;;;;;;;0.57;0.43;;;;;;;8.16;95.68;100471.72;4957802;28;20447;-71
2021/05/07 10:56:18;;;;;;;0.50;0.50;;;;;;;8.32;94.16;100478.53;4957571;28;20553;-71
2021/05/07 10:58:45;;;;;;;0.40;0.30;;;;;;;8.51;94.23;100483.19;4957563;28;20522;-71
2021/05/07 11:01:16;;;;;;;1.23;1.10;;;;;;;8.41;91.17;100477.91;4957278;28;20466;-71
2021/05/07 11:03:43;;;;;;;1.07;0.90;;;;;;;8.79;92.93;100476.88;4957240;28;20513;-71
2021/05/07 11:06:09;;;;;;;1.33;1.10;;;;;;;8.79;90.73;100484.16;4957398;28;20451;-71
2021/05/07 11:08:35;;;;;;;0.50;0.40;;;;;;;8.68;89.04;100477.31;4956927;28;20494;-71
2021/05/07 11:11:02;;;;;;;1.50;0.80;;;;;;;8.66;90.10;100484.88;4956973;28;20479;-71
2021/05/07 11:13:28;;;;;;;0.50;0.50;;;;;;;8.99;90.87;100483.88;4962817;28;20928;-71
2021/05/07 11:15:59;;;;;;;0.70;0.67;;;;;;;9.69;89.67;100493.81;4956806;28;20451;-71
2021/05/07 11:18:30;;;;;;;0.90;0.70;;;;;;;9.91;82.92;100493.16;4956901;28;20447;-71
2021/05/07 11:20:56;;;;;;;1.43;0.53;;;;;;;9.98;81.90;100487.38;4956896;28;20450;-71
2021/05/07 11:23:29;;;;;;;1.27;0.80;;;;;;;10.29;82.77;100487.63;4956936;28;20473;-71
2021/05/07 11:25:56;;;;;;;0.60;0.60;;;;;;;10.50;82.07;100491.53;4956858;28;20490;-71
2021/05/07 11:28:22;;;;;;;0.60;0.60;;;;;;;10.31;82.36;100498.94;4956682;28;20490;-70
2021/05/07 11:30:50;;;;;;;0.40;0.30;;;;;;;10.27;82.54;100496.06;4980491;23;21062;-64
2021/05/07 11:33:17;;;;;;;0.80;0.70;;;;;;;10.23;81.92;100494.22;4956510;28;20458;-64
2021/05/07 11:35:44;;;;;;;0.60;0.50;;;;;;;10.92;78.84;100500.38;4956724;28;20990;-64